Relevés horaires Jungfraujoch (Suisse)


Relevés horaires à Jungfraujoch - Vendredi 08 Avr. 2011
Heure UTC1 Température [°C] Vent [km/h] Hum. [%] Pres.4 [hPa] Visi. [Km] Nébu. [octa] Préc.5 [mm] Cond.
2m. Res. Ros. Dir.2 Vit. Moy. Raf.3
23:00 -0.5 -7.3 -19.3 N 31.5 37.0 59.3 22 700(-0.2/3h) -- -- -- --
22:00 -0.4 -8 -16.9 N 40.7 44.4 70.4 27 700(0.0/3h) -- -- -- --
21:00 -0.7 -7.9 -15.6 N 35.2 37.0 57.4 31 700(0.8/3h) -- -- -- --
20:00 -1.8 -8.3 -14.3 N 25.9 25.9 55.6 38 700(0.7/3h) -- -- -- --
19:00 -2.7 -8.1 -13.3 NO 16.7 25.9 33.3 44 700(0.6/3h) -- -- -- --
18:00 -3.7 -10.5 -9.3 NO 24.1 27.8 33.3 65 700(-0.1/3h) >70 0/8 -- --
17:00 -3.1 -9.8 -9.8 NO 24.1 24.1 31.5 60 700(-0.4/3h) -- -- -- --
16:00 -2.7 -9.5 -7.9 NO 25.9 27.8 31.5 67 700(-0.5/3h) -- -- -- --
15:00 -1.8 -7.6 -11.1 NO 20.4 25.9 33.3 49 700(-0.4/3h) >70 1/8 -- --
14:00 -0.5 -6.2 -15.6 NO 22.2 22.2 29.6 31 700(0.0/3h) -- -- -- --
13:00 -1.7 -7.1 -26.7 NO 18.5 25.9 33.3 13 700(-0.2/3h) -- -- -- --
12:00 -1.7 -8.6 -32.8 NO 29.6 42.6 53.7 7 700(-0.3/3h) >70 3/8 -- --
11:00 -2.7 -10.4 -31.2 NO 33.3 37.0 46.3 9 700(-0.5/3h) -- -- -- --
10:00 -3.4 -11.7 -27.0 NO 37.0 40.7 50.0 14 700(-0.7/3h) -- -- -- --
09:00 -4.9 -13.8 -14.1 NO 38.9 42.6 53.7 48 700(-0.2/3h) >70 5/8 -- --
08:00 -4.5 -13.1 -15.1 NO 37.0 40.7 48.2 43 700(0.6/3h) -- -- -- --
07:00 -4.7 -13 -12.4 NO 33.3 33.3 53.7 55 700(0.9/3h) -- -- -- --
06:00 -4.9 -13.3 -12.1 NO 33.3 46.3 57.4 57 700(0.0/3h) >70 6/8 -- --
05:00 -5.1 -14.3 -15.0 NO 40.7 44.4 55.6 46 700(-1.1/3h) -- -- -- --
04:00 -4.6 -13.9 -17.9 ONO 44.4 44.4 55.6 34 700(-1.2/3h) -- -- -- --
03:00 -4.6 -13.6 -20.6 NO 40.7 46.3 57.4 27 700(-1.2/3h) -- -- -- --
02:00 -4.3 -13.4 -19.5 ONO 42.6 42.6 55.6 29 700(-1.2/3h) -- -- -- --
01:00 -3.9 -12.8 -15.8 ONO 42.6 42.6 57.4 39 700(-1.3/3h) -- -- -- --
00:00 -3.5 -12.3 -16.0 NO 42.6 44.4 66.7 37 700(-1.2/3h) -- -- -- --

1 Coordinated Universal Time. Actuellement il est 15:00 locale et 13:00 UTC.

2 Le vent souffle depuis la direction indiquée vers la direction oposée.

3 Les rafales max. sont disponible 40 min après l'heure du relevé.

4 Pour les stations d'altitude (plus de 600m) le géopotentiel du niveau le plus proche de la pression obligatoire est indiqué.

5 Les stations disposant d'un diffuseur peuvent indiquer "trace". Cela signifie que des précipitations ont touchés le sol mais que la quantité est inférieure à 0.1 mm.

Copyright

Les données affichées sur cette page sont la propriété exclusive de Météo Suisse.

Récapitulatif de la journée
Température [°C] Vent [km/h] Ensoleillement4 [h] Precipitations totale5 [mm] Pression [Hpa]
Min1 Max.2 Moy.3 Max. Min Max.
-5.3 -0.5 36.3 70.4 12 h 0 min 0 700.0 700.0

1 Température minimale relevée entre 18:00 UTC la veille et 18:00 UTC le jour donné.

2 Température maximale relevée entre 06:00 UTC le jour donné et 06:00 UTC le lendemain.

3 Vent moyen de la journée basé sur les relevés horaires.

4 Ensoleillement en heures relevé entre 06:00 UTC la veille et 06:00 UTC le jour donné.

5 Précipitations totales tombées entre 06:00 UTC la jour donné et 06:00 UTC le lendemain.

Graphiques horaires